Time;durP1;ratioP1;P1;durP2;ratioP2;P2;SDS_P1;SDS_P2;PMS_P1;PMS_P2;Temp;Humidity;BMP_temperature;BMP_pressure;BME280_temperature;BME280_humidity;BME280_pressure;Samples;Min_cycle;Max_cycle;Signal;HPM_P1;HPM_P2
2021/05/29 00:00:48;;;;;;;2.80;2.20;;;;;;;12.98;70.15;101326.00;4904436;28;97912;-61
2021/05/29 00:03:15;;;;;;;2.08;1.85;;;;;;;12.95;70.26;101329.22;4918371;28;97772;-68
2021/05/29 00:05:41;;;;;;;2.78;2.00;;;;;;;12.94;70.26;101338.41;4919028;28;97944;-61
2021/05/29 00:08:08;;;;;;;2.35;2.00;;;;;;;12.95;70.13;101329.22;4918557;28;99010;-68
2021/05/29 00:10:35;;;;;;;2.17;1.98;;;;;;;12.92;70.13;101329.72;4918725;28;98037;-61
2021/05/29 00:13:01;;;;;;;2.42;2.10;;;;;;;12.90;69.74;101327.31;4921218;28;98165;-68
2021/05/29 00:15:28;;;;;;;2.17;1.95;;;;;;;12.89;70.28;101331.09;4920662;28;127884;-67
2021/05/29 00:17:54;;;;;;;2.33;2.00;;;;;;;12.88;69.93;101325.91;4922367;28;98193;-61
2021/05/29 00:20:21;;;;;;;2.30;2.10;;;;;;;12.83;70.01;101318.59;4921099;28;123667;-68
2021/05/29 00:22:47;;;;;;;2.45;2.25;;;;;;;12.83;69.95;101321.31;4922293;28;97784;-61
2021/05/29 00:25:14;;;;;;;2.40;2.15;;;;;;;12.82;69.90;101322.38;4922322;28;99362;-61
2021/05/29 00:27:40;;;;;;;3.08;2.30;;;;;;;12.82;70.24;101318.88;4922360;28;98297;-68
2021/05/29 00:30:07;;;;;;;2.70;2.30;;;;;;;12.81;70.04;101319.91;4911707;28;127343;-61
2021/05/29 00:32:33;;;;;;;2.20;2.00;;;;;;;12.78;69.84;101318.56;4921967;28;97790;-68
2021/05/29 00:34:59;;;;;;;2.45;2.03;;;;;;;12.76;70.06;101316.09;4919978;28;127158;-67
2021/05/29 00:37:25;;;;;;;3.33;2.20;;;;;;;12.71;69.88;101315.28;4920468;28;128074;-68
2021/05/29 00:39:51;;;;;;;3.60;2.17;;;;;;;12.70;70.10;101321.78;4920489;28;126935;-68
2021/05/29 00:42:17;;;;;;;2.17;1.83;;;;;;;12.70;69.84;101322.56;4918022;28;122354;-67
2021/05/29 00:44:52;;;;;;;2.45;2.25;;;;;;;12.65;70.33;101321.72;4909974;28;128050;-68
2021/05/29 00:47:22;;;;;;;3.05;2.40;;;;;;;12.68;69.93;101321.19;4921753;28;98677;-61
2021/05/29 00:49:49;;;;;;;2.90;2.45;;;;;;;12.66;69.98;101328.78;4913733;28;106004;-68
2021/05/29 00:52:15;;;;;;;2.97;2.45;;;;;;;12.65;69.80;101333.34;4887126;28;111310;-61
2021/05/29 00:54:43;;;;;;;2.45;2.25;;;;;;;12.63;69.85;101327.41;4902599;28;99456;-62
2021/05/29 00:57:10;;;;;;;2.60;2.40;;;;;;;12.61;69.92;101334.13;4903445;28;98464;-61
2021/05/29 00:59:37;;;;;;;3.13;2.40;;;;;;;12.59;69.75;101337.09;4921141;28;112714;-68
2021/05/29 01:02:05;;;;;;;2.45;1.92;;;;;;;12.58;69.69;101340.91;4921038;28;98098;-68
2021/05/29 01:04:31;;;;;;;2.88;2.20;;;;;;;12.57;70.12;101338.44;4921303;28;101966;-68
2021/05/29 01:06:57;;;;;;;2.88;2.33;;;;;;;12.55;69.98;101335.19;4920941;28;128128;-68
2021/05/29 01:09:24;;;;;;;2.55;2.20;;;;;;;12.51;69.77;101329.47;4921067;28;98710;-62
2021/05/29 01:11:53;;;;;;;2.90;2.50;;;;;;;12.49;69.89;101331.59;4921106;28;97944;-68
2021/05/29 01:14:19;;;;;;;2.88;2.58;;;;;;;12.49;70.16;101326.19;4903031;28;102724;-61
2021/05/29 01:17:15;;;;;;;3.17;2.45;;;;;;;12.44;69.94;101326.16;4903225;28;98717;-61
2021/05/29 01:19:41;;;;;;;2.80;2.10;;;;;;;12.44;69.53;101326.97;4907538;28;98699;-68
2021/05/29 01:22:09;;;;;;;2.60;2.38;;;;;;;12.43;69.70;101325.38;4920366;28;97876;-68
2021/05/29 01:24:35;;;;;;;2.40;2.20;;;;;;;12.41;69.67;101319.38;4901500;28;98430;-68
2021/05/29 01:27:02;;;;;;;2.80;2.17;;;;;;;12.36;69.59;101324.75;4901443;28;98920;-61
2021/05/29 01:29:29;;;;;;;2.83;2.17;;;;;;;12.39;69.28;101318.84;4903579;28;98428;-61
2021/05/29 01:32:06;;;;;;;2.65;2.33;;;;;;;12.36;69.28;101324.75;4901844;28;97873;-67
2021/05/29 01:34:36;;;;;;;2.88;2.50;;;;;;;12.32;69.54;101320.94;4901639;28;99639;-61
2021/05/29 01:37:04;;;;;;;3.13;2.45;;;;;;;12.30;69.32;101323.09;4900909;28;98335;-67
2021/05/29 01:39:30;;;;;;;3.33;2.65;;;;;;;12.28;69.40;101325.25;4882518;28;115373;-61
2021/05/29 01:41:56;;;;;;;2.83;2.50;;;;;;;12.28;69.23;101320.63;4882875;28;98383;-61
2021/05/29 01:44:23;;;;;;;2.97;2.50;;;;;;;12.25;69.41;101318.44;4901610;28;98022;-61
2021/05/29 01:46:50;;;;;;;3.10;2.40;;;;;;;12.27;69.07;101320.91;4912478;28;98687;-67
2021/05/29 01:49:17;;;;;;;3.58;2.63;;;;;;;12.23;69.43;101320.59;4903119;28;98073;-67
2021/05/29 01:51:44;;;;;;;4.00;2.97;;;;;;;12.23;69.32;101330.59;4920630;28;98054;-61
2021/05/29 01:54:12;;;;;;;3.30;2.60;;;;;;;12.21;69.12;101319.22;4920836;28;98704;-67
2021/05/29 01:56:38;;;;;;;2.92;2.60;;;;;;;12.19;69.54;101324.91;4883157;28;98859;-61
2021/05/29 01:59:04;;;;;;;2.83;2.33;;;;;;;12.18;69.17;101320.56;4906263;28;125613;-61
2021/05/29 02:01:31;;;;;;;2.80;2.60;;;;;;;12.15;69.21;101323.78;4906239;28;97885;-67
2021/05/29 02:03:57;;;;;;;2.85;2.42;;;;;;;12.16;69.11;101332.69;4903250;28;120099;-68
2021/05/29 02:06:23;;;;;;;2.85;2.60;;;;;;;12.14;69.26;101329.44;4905679;28;99459;-61
2021/05/29 02:08:49;;;;;;;3.28;2.45;;;;;;;12.13;69.03;101325.91;4901725;28;115903;-61
2021/05/29 02:11:15;;;;;;;3.60;2.40;;;;;;;12.10;69.14;101326.41;4919147;28;123441;-61
2021/05/29 02:13:42;;;;;;;2.42;2.22;;;;;;;12.10;69.12;101331.00;4919914;28;127942;-68
2021/05/29 02:16:10;;;;;;;3.20;2.83;;;;;;;12.08;69.41;101338.56;4901961;28;99291;-68
2021/05/29 02:18:37;;;;;;;2.75;2.45;;;;;;;12.04;69.31;101339.09;4909925;28;98549;-67
2021/05/29 02:21:09;;;;;;;3.13;2.60;;;;;;;12.05;69.48;101331.78;4900820;28;98205;-67
2021/05/29 02:23:38;;;;;;;3.13;2.40;;;;;;;12.04;69.17;101335.56;4901382;28;98635;-61
2021/05/29 02:26:15;;;;;;;2.53;2.33;;;;;;;11.99;69.39;101340.94;4918638;28;97906;-61
2021/05/29 02:28:43;;;;;;;3.08;2.35;;;;;;;11.96;69.09;101331.44;4919995;28;98417;-68
2021/05/29 02:31:09;;;;;;;2.60;2.30;;;;;;;11.99;69.48;101340.94;4919799;28;98179;-61
2021/05/29 02:33:36;;;;;;;3.25;2.42;;;;;;;11.96;69.30;101331.44;4902034;28;98273;-61
2021/05/29 02:36:03;;;;;;;2.75;2.13;;;;;;;11.96;69.24;101334.13;4918469;28;100917;-61
2021/05/29 02:38:30;;;;;;;2.78;2.55;;;;;;;11.96;69.27;101342.25;4919838;28;99240;-67
2021/05/29 02:40:57;;;;;;;2.45;2.20;;;;;;;11.98;69.37;101347.38;4920353;28;97907;-61
2021/05/29 02:43:23;;;;;;;4.90;2.63;;;;;;;11.97;69.56;101343.88;4918729;28;128017;-67
2021/05/29 02:45:52;;;;;;;2.72;2.38;;;;;;;12.00;69.77;101342.56;4895688;28;99075;-68
2021/05/29 02:48:19;;;;;;;2.80;2.38;;;;;;;12.02;69.21;101340.41;4900807;28;97928;-61
2021/05/29 02:50:45;;;;;;;2.65;2.45;;;;;;;12.04;69.54;101352.59;4899510;28;115487;-61
2021/05/29 02:53:12;;;;;;;3.95;2.30;;;;;;;12.13;69.33;101354.84;4912949;28;128201;-61
2021/05/29 02:55:39;;;;;;;2.60;2.20;;;;;;;12.17;69.11;101356.75;4919493;28;103001;-68
2021/05/29 02:58:05;;;;;;;2.55;2.30;;;;;;;12.23;68.93;101363.03;4919968;28;98288;-61
2021/05/29 03:00:37;;;;;;;2.20;2.00;;;;;;;12.25;69.08;101355.47;4919662;28;100912;-61
2021/05/29 03:03:04;;;;;;;2.77;2.50;;;;;;;12.30;68.75;101355.53;4919814;28;98394;-67
2021/05/29 03:05:31;;;;;;;2.80;2.40;;;;;;;12.36;68.75;101361.78;4919687;28;99054;-68
2021/05/29 03:07:57;;;;;;;2.63;2.40;;;;;;;12.36;68.69;101359.91;4918793;28;98118;-68
2021/05/29 03:10:23;;;;;;;3.17;2.33;;;;;;;12.39;68.66;101362.09;4919351;28;98147;-67
2021/05/29 03:12:50;;;;;;;2.72;2.40;;;;;;;12.42;68.59;101352.66;4920503;28;98472;-68
2021/05/29 03:15:18;;;;;;;2.90;2.60;;;;;;;12.44;68.64;101350.50;4884535;28;111065;-68
2021/05/29 03:17:45;;;;;;;3.63;2.75;;;;;;;12.45;68.78;101350.22;4919544;28;98170;-61
2021/05/29 03:20:15;;;;;;;2.65;2.25;;;;;;;12.46;68.77;101345.66;4892651;28;122750;-68
2021/05/29 03:22:41;;;;;;;2.90;2.33;;;;;;;12.50;68.74;101347.59;4900608;28;99866;-61
2021/05/29 03:25:08;;;;;;;3.17;2.60;;;;;;;12.52;68.67;101348.13;4900501;28;98488;-61
2021/05/29 03:27:34;;;;;;;2.97;2.42;;;;;;;12.52;68.76;101352.72;4899037;28;114783;-68
2021/05/29 03:30:01;;;;;;;2.60;2.30;;;;;;;12.59;68.49;101356.03;4882136;28;97900;-61
2021/05/29 03:32:27;;;;;;;2.90;2.55;;;;;;;12.60;68.79;101354.97;4900671;28;99259;-61
2021/05/29 03:34:53;;;;;;;2.97;2.65;;;;;;;12.60;68.77;101354.16;4899683;28;127975;-62
2021/05/29 03:37:19;;;;;;;3.08;2.72;;;;;;;12.63;68.44;101353.63;4898464;28;127005;-68
2021/05/29 03:39:45;;;;;;;2.92;2.55;;;;;;;12.65;68.61;101351.47;4899996;28;97837;-61
2021/05/29 03:42:11;;;;;;;3.28;2.70;;;;;;;12.64;68.82;101345.25;4900149;28;98608;-61
2021/05/29 03:44:37;;;;;;;2.55;2.35;;;;;;;12.68;69.24;101356.38;4899795;28;116566;-67
2021/05/29 03:47:03;;;;;;;2.58;2.38;;;;;;;12.69;68.81;101353.41;4901145;28;128970;-67
2021/05/29 03:49:29;;;;;;;3.28;2.97;;;;;;;12.73;68.66;101364.50;4886180;28;122926;-68
2021/05/29 03:51:55;;;;;;;3.80;2.60;;;;;;;12.74;68.90;101358.03;4920195;28;127648;-61
2021/05/29 03:54:21;;;;;;;3.30;2.70;;;;;;;12.82;68.86;101368.38;4923090;28;98604;-61
2021/05/29 03:56:47;;;;;;;3.28;2.78;;;;;;;12.84;68.82;101357.28;4921337;28;127803;-67
2021/05/29 03:59:14;;;;;;;2.97;2.67;;;;;;;12.87;68.89;101373.81;4922542;28;114292;-67
2021/05/29 04:01:42;;;;;;;3.33;2.92;;;;;;;12.89;69.02;101376.25;4904861;28;98658;-67
2021/05/29 04:04:08;;;;;;;4.15;3.03;;;;;;;12.88;69.11;101371.91;4903024;28;98464;-67
2021/05/29 04:06:35;;;;;;;3.22;2.95;;;;;;;12.88;69.14;101369.22;4902766;28;98601;-67
2021/05/29 04:09:02;;;;;;;2.88;2.60;;;;;;;12.87;69.26;101368.41;4902285;28;112462;-67
2021/05/29 04:11:28;;;;;;;3.05;2.75;;;;;;;12.89;69.40;101376.25;4902269;28;98055;-68
2021/05/29 04:13:54;;;;;;;5.95;3.10;;;;;;;12.92;69.46;101367.63;4902357;28;127294;-61
2021/05/29 04:16:21;;;;;;;3.05;2.63;;;;;;;12.93;69.37;101377.34;4902384;28;115534;-68
2021/05/29 04:18:47;;;;;;;3.28;2.97;;;;;;;12.93;69.38;101380.91;4884607;28;98081;-62
2021/05/29 04:21:13;;;;;;;3.17;2.88;;;;;;;12.94;69.75;101377.13;4902463;28;99013;-62
2021/05/29 04:23:40;;;;;;;3.10;2.80;;;;;;;12.93;69.91;101378.19;4903218;28;98559;-61
2021/05/29 04:26:07;;;;;;;2.95;2.63;;;;;;;12.96;69.42;101384.97;4903190;28;98389;-61
2021/05/29 04:28:36;;;;;;;3.30;3.00;;;;;;;12.95;69.85;101383.34;4911933;28;97783;-68
2021/05/29 04:31:02;;;;;;;3.30;3.00;;;;;;;12.93;70.06;101380.91;4903434;28;119757;-61
2021/05/29 04:33:29;;;;;;;3.47;2.90;;;;;;;12.93;69.99;101380.06;4903596;28;118337;-61
2021/05/29 04:35:55;;;;;;;4.65;3.05;;;;;;;12.97;70.05;101383.91;4887002;28;120392;-63
2021/05/29 04:38:21;;;;;;;3.15;2.85;;;;;;;12.99;69.86;101379.84;4922296;28;97732;-67
2021/05/29 04:40:47;;;;;;;3.28;2.97;;;;;;;13.04;69.99;101384.47;4921323;28;98095;-61
2021/05/29 04:43:13;;;;;;;3.15;2.80;;;;;;;13.10;69.81;101385.34;4921759;28;104072;-67
2021/05/29 04:45:41;;;;;;;3.40;3.10;;;;;;;13.13;69.72;101391.03;4921094;28;128409;-61
2021/05/29 04:48:08;;;;;;;2.92;2.72;;;;;;;13.19;69.80;101391.88;4922038;28;97791;-61
2021/05/29 04:51:11;;;;;;;3.70;2.70;;;;;;;13.27;69.61;101396.81;4903142;28;104770;-61
2021/05/29 04:53:20;;;;;;;3.28;2.97;;;;;;;13.38;69.50;101397.69;4921153;28;99060;-61
2021/05/29 04:55:46;;;;;;;3.42;2.80;;;;;;;13.50;69.02;101393.69;4911117;28;126355;-67
2021/05/29 04:58:12;;;;;;;2.90;2.60;;;;;;;13.61;69.03;101391.84;4900172;28;123527;-67
2021/05/29 05:00:38;;;;;;;3.47;2.78;;;;;;;13.72;68.41;101390.78;4901189;28;127708;-61
2021/05/29 05:03:04;;;;;;;3.42;2.80;;;;;;;13.91;68.58;101391.13;4867512;28;123647;-67
2021/05/29 05:05:30;;;;;;;3.13;2.67;;;;;;;14.10;67.67;101399.56;4893581;28;108023;-67
2021/05/29 05:07:56;;;;;;;3.13;2.83;;;;;;;14.23;67.53;101392.81;4903645;28;123109;-68
2021/05/29 05:10:22;;;;;;;2.70;2.50;;;;;;;14.32;67.61;101399.31;4913122;28;98577;-61
2021/05/29 05:12:48;;;;;;;3.05;2.78;;;;;;;14.39;67.51;101404.50;4920749;28;128289;-67
2021/05/29 05:15:15;;;;;;;2.80;2.35;;;;;;;14.46;67.71;101397.72;4902395;28;128133;-67
2021/05/29 05:17:42;;;;;;;3.72;2.63;;;;;;;14.59;67.57;101401.00;4885846;28;119928;-67
2021/05/29 05:20:09;;;;;;;3.13;2.83;;;;;;;15.03;66.43;101393.09;4887874;28;104767;-61
2021/05/29 05:22:35;;;;;;;2.65;2.45;;;;;;;15.19;66.36;101394.66;4890216;28;98260;-61
2021/05/29 05:25:02;;;;;;;2.72;2.53;;;;;;;15.29;65.82;101402.00;4917971;28;127171;-68
2021/05/29 05:27:28;;;;;;;2.83;2.60;;;;;;;15.37;66.12;101400.59;4920322;28;107441;-62
2021/05/29 05:29:54;;;;;;;3.13;2.72;;;;;;;15.58;65.57;101395.91;4920678;28;126968;-62
2021/05/29 05:32:21;;;;;;;3.28;2.75;;;;;;;15.76;64.73;101394.47;4920383;28;127780;-60
2021/05/29 05:34:47;;;;;;;2.72;2.47;;;;;;;15.98;64.58;101399.53;4920997;28;98665;-68
2021/05/29 05:37:13;;;;;;;2.60;2.40;;;;;;;16.02;64.42;101400.59;4920628;28;97783;-68
2021/05/29 05:39:39;;;;;;;2.70;2.50;;;;;;;16.08;64.50;101413.09;4917942;28;99111;-67
2021/05/29 05:42:06;;;;;;;2.75;2.55;;;;;;;16.00;64.96;101406.34;4917978;28;98970;-61
2021/05/29 05:44:32;;;;;;;2.70;2.30;;;;;;;15.99;65.22;101403.88;4917363;28;98855;-68
2021/05/29 05:46:58;;;;;;;2.50;2.30;;;;;;;15.99;65.84;101406.59;4915952;28;122539;-61
2021/05/29 05:49:24;;;;;;;3.65;2.58;;;;;;;15.92;65.76;101394.13;4916139;28;128063;-67
2021/05/29 05:51:50;;;;;;;3.00;2.50;;;;;;;15.92;66.24;101402.28;4916486;28;106609;-61
2021/05/29 05:54:16;;;;;;;2.90;2.70;;;;;;;15.90;65.82;101409.91;4916476;28;125968;-61
2021/05/29 05:56:43;;;;;;;2.97;2.63;;;;;;;16.24;65.70;101411.06;4916221;28;123136;-67
2021/05/29 05:59:09;;;;;;;2.83;2.58;;;;;;;17.61;60.77;101411.72;4916582;28;128556;-67
2021/05/29 06:01:35;;;;;;;2.67;2.47;;;;;;;17.42;60.62;101415.19;4916905;28;127939;-61
2021/05/29 06:04:01;;;;;;;3.08;2.53;;;;;;;17.42;61.49;101423.38;4917525;28;99978;-61
2021/05/29 06:06:27;;;;;;;2.85;2.40;;;;;;;17.81;60.57;101421.56;4912707;28;123577;-61
2021/05/29 06:08:53;;;;;;;3.15;2.42;;;;;;;17.62;59.68;101422.31;4916715;28;128857;-67
2021/05/29 06:11:19;;;;;;;2.75;2.53;;;;;;;17.37;62.22;101422.59;4917505;28;97921;-61
2021/05/29 06:21:35;;;;;;;2.72;2.53;;;;;;;16.92;64.48;101433.69;4884296;28;97885;-67
2021/05/29 06:24:01;;;;;;;3.08;2.78;;;;;;;16.76;64.74;101440.38;4898812;28;98829;-61
2021/05/29 06:26:27;;;;;;;3.40;3.10;;;;;;;16.63;65.78;101439.09;4916869;28;98427;-67
2021/05/29 06:28:53;;;;;;;2.92;2.70;;;;;;;16.64;65.22;101435.25;4899635;28;98762;-67
2021/05/29 06:31:21;;;;;;;3.17;2.90;;;;;;;16.69;65.40;101437.13;4898555;28;123671;-61
2021/05/29 06:33:47;;;;;;;3.30;3.00;;;;;;;16.93;64.87;101445.38;4916776;28;127076;-67
2021/05/29 06:36:13;;;;;;;4.10;3.00;;;;;;;17.37;63.16;101431.59;4912164;28;123560;-61
2021/05/29 06:38:39;;;;;;;4.07;2.78;;;;;;;17.36;62.85;101435.41;4916422;28;126478;-67
2021/05/29 06:41:05;;;;;;;2.92;2.70;;;;;;;17.41;62.93;101440.03;4916694;28;121038;-61
2021/05/29 06:43:31;;;;;;;3.75;3.30;;;;;;;17.42;61.83;101442.44;4916603;28;98658;-67
2021/05/29 06:45:57;;;;;;;3.38;3.08;;;;;;;17.28;62.96;101452.41;4915797;28;100374;-61
2021/05/29 06:48:24;;;;;;;3.58;3.28;;;;;;;17.19;64.28;101462.31;4915630;28;123068;-67
2021/05/29 06:50:54;;;;;;;3.83;3.30;;;;;;;17.05;65.03;101450.44;4916164;28;97967;-67
2021/05/29 06:53:31;;;;;;;3.53;3.22;;;;;;;16.85;65.40;101463.13;4916242;28;98471;-67
2021/05/29 06:58:51;;;;;;;3.65;3.35;;;;;;;16.74;66.11;101466.22;4898133;28;97937;-67
2021/05/29 07:01:22;;;;;;;3.72;3.20;;;;;;;16.92;65.58;101466.34;4916126;28;100509;-67
2021/05/29 07:03:49;;;;;;;3.90;3.60;;;;;;;16.86;66.19;101474.88;4897869;28;113220;-67
2021/05/29 07:06:15;;;;;;;3.97;3.33;;;;;;;16.71;66.50;101478.50;4890665;28;99055;-67
2021/05/29 07:08:41;;;;;;;4.07;3.20;;;;;;;16.59;66.26;101476.13;4893224;28;98460;-61
2021/05/29 07:11:08;;;;;;;3.63;3.33;;;;;;;16.53;66.88;101476.44;4878955;28;98084;-61
2021/05/29 07:13:34;;;;;;;3.95;3.45;;;;;;;16.53;67.52;101471.81;4910410;28;98481;-61
2021/05/29 07:16:00;;;;;;;3.83;3.38;;;;;;;16.62;66.95;101463.84;4900285;28;112911;-67
2021/05/29 07:18:32;;;;;;;3.65;3.20;;;;;;;16.97;65.97;101464.69;4916780;28;98313;-60
2021/05/29 07:21:00;;;;;;;4.10;3.70;;;;;;;17.34;64.58;101461.34;4918133;28;98083;-61
2021/05/29 07:23:26;;;;;;;7.38;5.80;;;;;;;17.04;58.34;101457.81;4904632;28;98503;-61
2021/05/29 07:25:53;;;;;;;9.88;5.55;;;;;;;16.80;57.65;101452.31;4923112;28;105653;-69
2021/05/29 07:28:19;;;;;;;6.25;5.32;;;;;;;16.56;58.08;101463.09;4918883;28;119864;-68
2021/05/29 07:30:47;;;;;;;6.72;5.82;;;;;;;16.12;58.48;101452.22;4904592;28;98005;-60
2021/05/29 07:33:13;;;;;;;8.55;5.18;;;;;;;16.77;57.24;101454.78;4904906;28;99231;-62
2021/05/29 07:35:41;;;;;;;6.85;5.90;;;;;;;16.96;54.17;101455.72;4922918;28;99203;-62
2021/05/29 07:38:07;;;;;;;6.05;5.43;;;;;;;16.99;53.74;101455.13;4922206;28;98624;-70
2021/05/29 07:40:33;;;;;;;10.20;5.93;;;;;;;17.11;53.88;101460.22;4914674;28;98096;-71
2021/05/29 07:42:59;;;;;;;15.68;6.20;;;;;;;17.61;54.49;101464.31;4922246;28;121021;-62
2021/05/29 07:45:25;;;;;;;8.43;5.40;;;;;;;17.36;54.45;101462.66;4922079;28;99845;-70
2021/05/29 07:47:52;;;;;;;6.65;5.28;;;;;;;16.99;55.90;101457.06;4922592;28;108301;-69
2021/05/29 07:50:18;;;;;;;6.32;5.47;;;;;;;16.71;57.01;101458.63;4922140;28;98000;-70
2021/05/29 07:52:46;;;;;;;10.15;5.50;;;;;;;15.27;59.31;101469.34;4922375;28;99101;-71
2021/05/29 07:55:12;;;;;;;6.97;5.13;;;;;;;16.35;56.90;101464.31;4922628;28;101212;-63
2021/05/29 07:57:38;;;;;;;13.02;5.40;;;;;;;16.05;58.21;101463.41;4922667;28;98138;-61
2021/05/29 08:00:09;;;;;;;8.85;5.47;;;;;;;16.26;57.70;101460.56;4921980;28;98165;-64
2021/05/29 08:02:35;;;;;;;7.75;5.60;;;;;;;15.99;59.53;101461.78;4922837;28;99308;-69
2021/05/29 08:05:01;;;;;;;9.07;6.22;;;;;;;15.70;60.43;101464.38;4904026;28;104183;-71
2021/05/29 08:07:27;;;;;;;6.72;6.03;;;;;;;15.08;61.96;101462.84;4903694;28;108347;-64
2021/05/29 08:09:56;;;;;;;6.72;5.63;;;;;;;14.63;63.42;101470.72;4904580;28;97990;-69
2021/05/29 08:12:23;;;;;;;6.95;6.18;;;;;;;14.56;63.59;101462.03;4904508;28;98454;-73
2021/05/29 08:14:49;;;;;;;8.10;6.32;;;;;;;14.27;64.80;101477.97;4920644;28;99115;-70
2021/05/29 08:17:15;;;;;;;8.43;6.40;;;;;;;14.61;63.34;101478.31;4916674;28;98010;-61
2021/05/29 08:19:41;;;;;;;8.73;6.65;;;;;;;14.55;63.17;101479.41;4879089;28;98050;-62
2021/05/29 08:22:07;;;;;;;6.25;5.65;;;;;;;14.94;63.11;101471.56;4912755;28;127381;-70
2021/05/29 08:24:33;;;;;;;8.27;6.50;;;;;;;14.81;61.62;101477.50;4914139;28;127662;-70
2021/05/29 08:27:00;;;;;;;10.32;7.03;;;;;;;14.95;61.49;101470.47;4921534;28;98208;-70
2021/05/29 08:29:26;;;;;;;7.40;5.95;;;;;;;14.66;63.50;101475.63;4916279;28;98358;-61
2021/05/29 08:31:52;;;;;;;8.45;6.28;;;;;;;14.91;62.95;101474.00;4920722;28;98805;-62
2021/05/29 08:34:18;;;;;;;7.90;6.18;;;;;;;15.07;62.88;101474.81;4917417;28;115021;-70
2021/05/29 08:36:44;;;;;;;7.45;5.78;;;;;;;15.63;61.58;101472.78;4918688;28;110274;-62
2021/05/29 08:39:10;;;;;;;8.77;6.15;;;;;;;15.95;61.03;101469.72;4883714;28;120949;-61
2021/05/29 08:41:38;;;;;;;8.13;6.60;;;;;;;15.93;60.00;101473.78;4883974;28;98849;-70
2021/05/29 08:44:08;;;;;;;6.88;5.70;;;;;;;16.16;59.98;101480.47;4917295;28;98232;-71
2021/05/29 08:46:34;;;;;;;7.78;6.45;;;;;;;16.74;58.48;101472.53;4918614;28;97996;-70
2021/05/29 08:49:00;;;;;;;7.22;6.30;;;;;;;16.98;57.36;101477.19;4918518;28;105955;-71
2021/05/29 08:51:26;;;;;;;9.32;6.30;;;;;;;17.35;57.14;101469.22;4915241;28;126160;-61
2021/05/29 08:53:56;;;;;;;8.88;6.32;;;;;;;18.14;54.37;101469.66;4918658;28;98431;-72
2021/05/29 08:56:22;;;;;;;13.77;7.07;;;;;;;20.22;53.04;101462.69;4885600;28;98202;-70
2021/05/29 08:58:49;;;;;;;7.40;6.07;;;;;;;21.12;49.28;101469.00;4916545;28;98001;-64
2021/05/29 09:01:16;;;;;;;6.97;6.05;;;;;;;21.68;46.01;101464.75;4913541;28;99049;-68
2021/05/29 09:04:10;;;;;;;15.48;5.90;;;;;;;20.27;48.58;101462.56;4915193;28;98596;-67
2021/05/29 09:06:44;;;;;;;6.90;5.70;;;;;;;20.89;45.45;101456.47;4898230;28;117655;-63
2021/05/29 09:09:13;;;;;;;6.63;5.70;;;;;;;19.10;49.42;101471.22;4910045;28;98539;-61
2021/05/29 09:11:49;;;;;;;8.02;6.32;;;;;;;21.18;44.82;101458.69;4917550;28;98611;-63
2021/05/29 09:14:24;;;;;;;6.85;5.85;;;;;;;23.07;41.04;101456.59;4916639;28;98845;-68
2021/05/29 09:17:18;;;;;;;7.43;5.18;;;;;;;22.78;42.72;101454.50;4911965;28;98236;-62
2021/05/29 09:20:07;;;;;;;7.45;4.20;;;;;;;22.82;40.70;101463.72;4917213;28;98455;-68
2021/05/29 09:22:55;;;;;;;5.72;4.50;;;;;;;21.88;42.87;101460.59;4917795;28;98813;-62
2021/05/29 09:25:23;;;;;;;6.00;3.78;;;;;;;21.65;41.54;101467.31;4908567;28;103333;-71
2021/05/29 09:28:00;;;;;;;5.72;4.03;;;;;;;22.82;38.75;101452.72;4916428;28;98785;-63
2021/05/29 09:30:51;;;;;;;5.65;3.63;;;;;;;24.98;34.97;101447.03;4917137;28;100553;-72
2021/05/29 09:33:34;;;;;;;5.25;3.83;;;;;;;26.53;33.34;101457.09;4897928;28;99733;-64
2021/05/29 09:36:11;;;;;;;5.57;4.07;;;;;;;26.30;31.34;101462.31;4885485;28;98209;-72
2021/05/29 09:38:42;;;;;;;5.68;3.92;;;;;;;27.52;29.61;101455.31;4901171;28;97747;-63
2021/05/29 09:41:22;;;;;;;6.18;4.30;;;;;;;27.20;30.15;101454.53;4909650;28;97855;-72
2021/05/29 09:43:58;;;;;;;5.38;3.90;;;;;;;27.58;30.15;101458.59;4914978;28;98357;-71
2021/05/29 09:46:25;;;;;;;6.95;4.20;;;;;;;27.79;29.83;101458.34;4916897;28;99108;-72
2021/05/29 09:48:56;;;;;;;5.15;3.50;;;;;;;26.80;31.08;101451.88;4917824;28;98180;-72
2021/05/29 09:51:23;;;;;;;4.93;3.35;;;;;;;24.51;33.97;101450.09;4899374;28;98026;-64
2021/05/29 09:53:51;;;;;;;5.00;3.15;;;;;;;26.47;30.29;101441.09;4917181;28;99046;-64
2021/05/29 09:56:34;;;;;;;4.03;2.83;;;;;;;26.98;30.17;101442.09;4917630;28;98592;-73
2021/05/29 09:59:17;;;;;;;3.97;2.83;;;;;;;28.96;26.29;101436.94;4916764;28;98767;-64
2021/05/29 10:01:51;;;;;;;3.92;2.95;;;;;;;25.05;32.74;101449.22;4910689;28;98352;-64
2021/05/29 10:04:37;;;;;;;5.63;3.10;;;;;;;23.80;34.63;101445.44;4917071;28;98281;-72
2021/05/29 10:07:10;;;;;;;4.78;3.25;;;;;;;20.78;41.44;101456.69;4917226;28;98807;-72
2021/05/29 10:09:36;;;;;;;5.05;3.78;;;;;;;20.70;42.92;101446.50;4917222;28;98283;-73
2021/05/29 10:12:03;;;;;;;5.05;3.40;;;;;;;20.04;43.72;101446.13;4899809;28;98442;-64
2021/05/29 10:14:31;;;;;;;4.45;3.13;;;;;;;21.53;41.70;101430.31;4874694;28;102453;-72
2021/05/29 10:17:04;;;;;;;3.85;2.75;;;;;;;22.58;38.26;101428.53;4902975;28;99043;-64
2021/05/29 10:19:30;;;;;;;3.47;2.83;;;;;;;22.67;38.26;101432.06;4044790;28;10000225;-73
2021/05/29 10:21:56;;;;;;;4.35;2.60;;;;;;;26.38;30.92;101406.09;4916040;28;98212;-73
2021/05/29 10:24:24;;;;;;;3.88;2.50;;;;;;;24.59;32.38;101415.34;4899078;28;98015;-64
2021/05/29 10:26:52;;;;;;;3.35;2.20;;;;;;;22.85;36.09;101426.53;4917307;28;97682;-73
2021/05/29 10:29:23;;;;;;;4.45;2.67;;;;;;;21.45;39.62;101428.38;4898673;28;115094;-72
2021/05/29 10:31:49;;;;;;;3.45;2.25;;;;;;;19.71;42.12;101425.50;4914740;28;111382;-72
2021/05/29 10:34:15;;;;;;;2.72;1.73;;;;;;;19.95;40.59;101426.06;4898861;28;126066;-73
2021/05/29 10:36:47;;;;;;;3.45;1.67;;;;;;;21.92;37.80;101423.16;4897617;28;119075;-72
2021/05/29 10:39:22;;;;;;;5.03;2.58;;;;;;;19.80;41.29;101421.72;4905274;28;98021;-72
2021/05/29 10:41:57;;;;;;;4.70;2.70;;;;;;;19.58;44.42;101419.69;4914405;28;98486;-63
2021/05/29 10:44:39;;;;;;;3.88;2.70;;;;;;;18.77;46.18;101437.63;4910593;28;97930;-69
2021/05/29 10:47:21;;;;;;;5.00;2.78;;;;;;;18.07;47.14;101431.00;4912334;28;98142;-64
2021/05/29 10:49:50;;;;;;;4.38;2.72;;;;;;;18.02;47.85;101443.91;4916746;28;98490;-63
2021/05/29 10:52:34;;;;;;;4.72;3.42;;;;;;;21.91;39.05;101418.81;4917192;28;98233;-63
2021/05/29 10:55:09;;;;;;;5.30;3.20;;;;;;;20.63;42.39;101417.94;4916678;28;98070;-63
2021/05/29 10:58:00;;;;;;;5.18;3.00;;;;;;;21.29;39.20;101421.66;4915546;28;97874;-63
2021/05/29 11:00:36;;;;;;;6.70;3.00;;;;;;;19.76;42.82;101412.50;4916669;28;99375;-72
2021/05/29 11:03:17;;;;;;;4.85;2.60;;;;;;;19.58;43.56;101416.16;4916751;28;98695;-71
2021/05/29 11:05:47;;;;;;;4.63;2.55;;;;;;;19.04;44.42;101421.28;4907958;28;98406;-63
2021/05/29 11:08:51;;;;;;;3.20;2.70;;;;;;;19.38;41.48;101409.19;4915535;28;115853;-72
2021/05/29 11:11:36;;;;;;;4.30;2.10;;;;;;;23.35;33.89;101390.16;4917164;28;99175;-63
2021/05/29 11:14:07;;;;;;;3.25;1.80;;;;;;;23.69;32.54;101384.47;4917358;28;98605;-71
2021/05/29 11:16:54;;;;;;;3.28;1.60;;;;;;;24.62;31.87;101384.34;4915815;28;97873;-71
2021/05/29 11:19:21;;;;;;;3.05;1.40;;;;;;;21.96;33.58;101404.09;4906024;28;98401;-63
2021/05/29 11:22:13;;;;;;;3.25;1.90;;;;;;;20.67;36.51;101406.06;4910224;28;98688;-72
2021/05/29 11:24:59;;;;;;;6.47;2.22;;;;;;;22.39;35.75;101395.09;4913837;28;99110;-72
2021/05/29 11:27:35;;;;;;;4.35;2.03;;;;;;;23.99;33.11;101379.72;4898283;28;98145;-63
2021/05/29 11:30:13;;;;;;;4.50;1.80;;;;;;;23.38;33.54;101379.28;4916830;28;98306;-73
2021/05/29 11:32:53;;;;;;;3.42;1.80;;;;;;;22.68;35.27;101388.91;4915765;28;98593;-64
2021/05/29 11:35:35;;;;;;;2.78;2.00;;;;;;;20.87;37.86;101393.78;4907191;28;98393;-63
2021/05/29 11:38:22;;;;;;;2.92;1.85;;;;;;;22.63;34.56;101372.59;4898901;28;98299;-72
2021/05/29 11:40:59;;;;;;;1.98;1.30;;;;;;;22.62;32.73;101376.47;4907711;28;98507;-72